Tri Cities Regional Tn Va Airport
KTRI : now visible

Airfield :











YOU CAN JOIN US ON...

 
LOGIN :

Register | Disclaimer

   EN    FR    IT 

 









Legend :    VFR   Marginal VFR   IFR   Intensive IFR   Very Intensive IFR
Visi :
Ceiling :
>= 8 km
>= 3000ft
5 to 8 km
1000 to 3000 ft
1500m to 5 km
500 to 1000 ft
800 to 1500m
200 to 500 ft
< 800m
< 200 ft
Symbols :   Thunderstorms  Fog  Heavy snow  Heavy precipitations  Wind > 20 kt






- Airport Elevation : 1519 ft
- IATA code : TRI


KTRI - Tri Cities Regional Tn Va

CURRENT METAR :
  • 250353Z 00000KT 10SM CLR 19/14 A3002 RMK AO2 SLP141 T01890144

EXPIRED METARs :
  • 250253Z 00000KT 10SM CLR 20/15 A3001 RMK AO2 SLP136 T02000150 53014
  • 250153Z 00000KT 10SM CLR 22/14 A3000 RMK AO2 SLP131 T02220144
  • 250053Z 00000KT 10SM CLR 25/14 A2998 RMK AO2 SLP125 T02500144
  • 242353Z 35007KT 10SM SCT070 28/14 A2997 RMK AO2 SLP120 T02780144 10322 20278 53004

TAF KTRI
Valid from the 25 at 00:00 until the 26 at 00:00 UTC


242330Z 2500/2524 VRB04KT P6SM FEW250
KZTL FIR / North America



MET'MAP, your aeronautical weather chart ! - Copyright ORBIFLY December 2007 - Disclaimer

ORBIFLY MET'MAP TEAM :

Programming & Development : Alexandra Zaïnal
Original concept : Baudouin d'Aumeries
Technical & hardware support : Manuel Goepfert
Assistance : Marc-Olivier Méhu




SOURCES & CREDITS :

   NOAA       Earth
Advisory